AirNav   TITAN Aviation Fuels
 
 1109 users online  

KJGG Williamsburg-Jamestown Airport
Williamsburg, Virginia, USA

GOING TO WILLIAMSBURG?


FAA INFORMATION EFFECTIVE 16 JUNE 2022

Location

FAA Identifier: JGG
Lat/Long: 37-14-21.0290N 076-42-57.9460W
37-14.350483N 076-42.965767W
37.2391747,-76.7160961
(estimated)
Elevation: 49 ft. / 14.9 m (surveyed)
Variation: 11W (2010)
From city: 3 miles SW of WILLIAMSBURG, VA
Time zone: UTC -4 (UTC -5 during Standard Time)
Zip code: 23185

Airport Operations

Airport use: Open to the public
Activation date: 08/1970
Control tower: no
ARTCC: WASHINGTON CENTER
FSS: LEESBURG FLIGHT SERVICE STATION
NOTAMs facility: JGG (NOTAM-D service available)
Attendance: NOV-FEB 0800-1800, MAR-OCT 0800-1900
ARPT UNATTND CHRISTMAS DAY - ATTND BY REQUEST.
Pattern altitude: 849 ft. MSL
Wind indicator: lighted
Segmented circle: no
Lights: ACTVT REIL RWY 13 & 31; MIRL RY 13/31; PERIMETER LGTS RY H1 - CTAF.
Beacon: white-green (lighted land airport)
Operates sunset to sunrise.
Landing fee: no, LANDING FEE FOR COML & CHTR ACFT.

Airport Communications

CTAF/UNICOM: 122.8
WX AWOS-3: 120.625 (757-220-8810)
NORFOLK APPROACH: 119.45
NORFOLK DEPARTURE: 119.45
WX ASOS at PHF (12 nm SE): PHONE 757-874-3682
WX AWOS-3 at FYJ (17 nm N): 132.825 (804-785-2307)

Airport Services

Fuel available: 100LL JET-A+
Parking: hangars and tiedowns
Airframe service: MAJOR
Powerplant service: MAJOR
Bottled oxygen: NONE
Bulk oxygen: NONE

Runway Information

Runway 13/31

Dimensions: 3204 x 60 ft. / 977 x 18 m
Surface: asphalt, in fair condition
Weight bearing capacity: 
Single wheel: 12.5
Runway edge lights: medium intensity
RUNWAY 13  RUNWAY 31
Latitude: 37-14.483717N37-14.216817N
Longitude: 076-43.250367W076-42.680517W
Elevation: 48.0 ft.22.0 ft.
Traffic pattern: rightleft
Runway heading: 131 magnetic, 120 true311 magnetic, 300 true
Markings: basic, in fair conditionbasic, in fair condition
Runway end identifier lights: yesyes
Touchdown point: yes, no lightsyes, no lights
Obstructions: 106 ft. trees, 2016 ft. from runway, 269 ft. right of centerline, 17:1 slope to clearnone
20 FT TREE 156 FT FM THR 106 L OF CNTRLN; BRUSH APRX 127 FT FM THR, ARND PEN EDGE, 15 FT ABV RWY END.

Helipad H1

Dimensions: 60 x 60 ft. / 18 x 18 m
Surface: concrete, in good condition
Traffic pattern: leftleft
Markings: basic, in fair condition

Airport Ownership and Management from official FAA records

Ownership: Privately-owned
Owner: WILLIAMSBURG-JAMESTOWN ARPT.
100 MARCLAY RD
WILLIAMSBURG, VA 23185
Phone 757-229-9256
Manager: LARRY T. WALTRIP
100 MARCLAY RD
WILLIAMSBURG, VA 23185
Phone 757-229-9256

Airport Operational Statistics

Aircraft based on the field: 59
Single engine airplanes: 58
Multi engine airplanes: 1
    
Aircraft operations: avg 80/day *
52% local general aviation
38% transient general aviation
9% air taxi
<1% military
* for 12-month period ending 31 December 2018

Additional Remarks

DEER & BIRDS ON & INVOF ARPT.
NOISE ABATEMENT PROCEDURES IN EFFECT; CTC AMGR 757-229-9256. RY 31 DEP TURN LEFT HEADING 270 DEG TO AVOID SCHOOL 3500 FT OFF RY END.
GCO AVBL ON FREQ 135.075 THRU NORFOLK CD, 4 CLICKS NORFOLK, 5 LEESBURG RADIO (CLICK SLOWLY). IF UN, FOR CD CTC NORFOLK APCH AT 757-464-0757.
HELIPAD CLSD CT 122.8 FOR LDG INSTRUCTIONS.
PAEW ADJECENT TO RY 13/31.

Instrument Procedures

NOTE: All procedures below are presented as PDF files. If you need a reader for these files, you should download the free Adobe Reader.

NOT FOR NAVIGATION. Please procure official charts for flight.
FAA instrument procedures published for use from 16 June 2022 at 0901Z to 14 July 2022 at 0900z.

 
IAPs - Instrument Approach Procedures
RNAV (GPS)-C   download (174KB)
VOR-B   download (162KB)
NOTE: Special Alternate Minimums apply   download (19KB)
NOTE: Special Take-Off Minimums/Departure Procedures apply   download (140KB)

Other nearby airports with instrument procedures:

W94 - Camp Peary Landing Strip Airport (6 nm NE)
KFAF - Felker Army Airfield (8 nm SE)
KPHF - Newport News/Williamsburg International Airport (12 nm SE)
KFYJ - Middle Peninsula Regional Airport (17 nm N)
KLFI - Langley Air Force Base (19 nm SE)
 
Loc | Ops | Rwys | IFR | FBO | Links
Com | Nav | Svcs | Stats | Notes
Area around KJGG (Williamsburg-Jamestown Airport)
 
Road maps at: MapQuest Bing Google
 
Aerial photo
WARNING: Photo may not be current or correct
Aerial photo of KJGG (Williamsburg-Jamestown Airport)
Photo by David Newcomer
Photo taken 10-Sep-2019
looking south from 5,000' altitude.

Do you have a better or more recent aerial photo of Williamsburg-Jamestown Airport that you would like to share? If so, please send us your photo.

 
Sectional chart

 
Airport distance calculator
Flying to Williamsburg-Jamestown Airport? Find the distance to fly.

From to KJGG

Sunrise and sunset
Times for 26-Jun-2022
 Local
(UTC-4)
 Zulu
(UTC)
Morning civil twilight05:1809:18
Sunrise05:4909:49
Sunset20:3000:30
Evening civil twilight21:0101:01

Current date and time
Zulu (UTC)  26-Jun-2022 19:38:24
Local (UTC-4)  26-Jun-2022 15:38:24
 
METAR
KJGG 261915Z AUTO 14009KT 10SM CLR 33/18 A3010 RMK AO1
KFAF 
9nm SE 
261856Z AUTO 15010KT 10SM CLR 30/17 A3008 RMK AO2 SLP189 T03040174 $
KPHF 
12nm SE 
261854Z AUTO 18006KT 10SM CLR 29/16 A3010 RMK AO2 SLP193 T02940161
KFYJ 
17nm N 
261915Z AUTO 16011KT 10SM CLR 31/17 A3010 RMK AO1 T03050166
KLFI 
20nm SE 
261856Z 10009KT 9SM FEW250 28/23 A3010 RMK AO2A SLP199 T02830227 $
TAF
KPHF 
12nm SE 
261720Z 2618/2718 21008KT P6SM SCT040 FM262100 15010KT P6SM FEW040 FM270300 18010KT P6SM SCT150 FM271200 21011KT P6SM BKN080
KLFI 
20nm SE 
261700Z 2617/2723 20009KT 9999 FEW240 QNH3013INS BECMG 2705/2706 20012KT 9999 SCT050 BKN070 QNH3004INS BECMG 2711/2712 21012G18KT 9999 SCT030 BKN050 QNH3001INS BECMG 2714/2715 27009KT 8000 -SHRA BKN030 OVC050 QNH2999INS TEMPO 2720/2723 30025G35KT 4800 -TSRA BKN020CB OVC035 TX29/2617Z TN23/2707Z
NOTAMs
Click for the latest NOTAMs
NOTAMs are issued by the DoD/FAA and will open in a separate window not controlled by AirNav.

 

 
 

FBO, Fuel Providers, and Aircraft Ground Support

  
 Business Name 
 
 Contact 
 
 Services / Description 
 
Fuel Prices
 
Comments
  
Williamsburg-Jamestown Airport 757-229-9256
757-229-6855
[web site]
[email]
Airport management, Aviation fuel, Aircraft parking (ramp or tiedown), Hangars, Hangar leasing / sales, Pilot school (FAR Part 141), Flight training, ...

More info about Williamsburg-Jamestown Airport
Titan
100LL Jet A
FS $7.64 $6.77 
 Updated 15-Jun-2022
 
   1 read write
FS=Full service
Update Fuel Prices
 

Where to Eat: Catering, Restaurants, Food shops

  
 Business Name 
 
 Contact 
 
 Services / Description 
 
Distance
 
Comments
  
Charly's 757-258-0034
no information available

If you are affiliated with Charly's and would like to show here your services, contact info, web link, logo, and more, click here
on airport  
   write
 

Would you like to see your business listed on this page?

 If your business provides an interesting product or service to pilots, flight crews, aircraft, or users of the Williamsburg-Jamestown Airport, you should consider listing it here.  To start the listing process, click on the button below
 
Add a business
 

Other Pages about Williamsburg-Jamestown Airport

www.wjairport.com
www.flyvirginia.com/...
 
Update a link
 
Copyright © AirNav, LLC. All rights reserved. Privacy Policy  Contact